Time;durP1;ratioP1;P1;durP2;ratioP2;P2;SDS_P1;SDS_P2;PMS_P1;PMS_P2;Temp;Humidity;BMP_temperature;BMP_pressure;BME280_temperature;BME280_humidity;BME280_pressure;Samples;Min_cycle;Max_cycle;Signal;HPM_P1;HPM_P2
2023/09/26 00:00:22;;;;;;;6.82;4.90;;;14.30;99.90;;;;;;5062001;28;38786;-80
2023/09/26 00:02:49;;;;;;;7.28;4.90;;;14.30;99.90;;;;;;5081983;28;48784;-80
2023/09/26 00:05:16;;;;;;;6.45;5.25;;;14.30;99.90;;;;;;5088370;28;38829;-81
2023/09/26 00:07:42;;;;;;;8.18;5.20;;;14.30;99.90;;;;;;5077835;27;37890;-80
2023/09/26 00:10:10;;;;;;;8.48;5.18;;;14.30;99.90;;;;;;5084679;28;39356;-80
2023/09/26 00:12:37;;;;;;;8.27;5.47;;;14.30;99.90;;;;;;5068295;28;37413;-80
2023/09/26 00:15:03;;;;;;;6.60;4.90;;;14.30;99.90;;;;;;5069879;28;37056;-80
2023/09/26 00:17:29;;;;;;;9.15;5.07;;;14.30;99.90;;;;;;5073314;28;49068;-80
2023/09/26 00:19:55;;;;;;;7.72;5.32;;;14.40;99.90;;;;;;5073560;28;38626;-80
2023/09/26 00:22:22;;;;;;;7.90;5.55;;;14.40;99.90;;;;;;5063131;28;38241;-80
2023/09/26 00:24:48;;;;;;;9.75;5.80;;;14.40;99.90;;;;;;5067164;28;38681;-80
2023/09/26 00:27:14;;;;;;;10.77;6.63;;;14.40;99.90;;;;;;5060192;28;35975;-80
2023/09/26 00:29:40;;;;;;;10.15;6.43;;;14.40;99.90;;;;;;5068287;28;37699;-80
2023/09/26 00:32:06;;;;;;;9.48;6.35;;;14.50;99.90;;;;;;5075770;28;38984;-79
2023/09/26 00:34:32;;;;;;;8.95;7.47;;;14.40;99.90;;;;;;5084124;28;37918;-80
2023/09/26 00:36:58;;;;;;;8.85;6.53;;;14.40;99.90;;;;;;5077152;28;36091;-80
2023/09/26 00:39:25;;;;;;;10.52;7.45;;;14.40;99.90;;;;;;5080924;28;38571;-80
2023/09/26 00:41:51;;;;;;;10.27;7.00;;;14.40;99.90;;;;;;5063066;28;37479;-80
2023/09/26 00:44:17;;;;;;;8.68;6.80;;;14.40;99.90;;;;;;5076003;28;37032;-80
2023/09/26 00:46:43;;;;;;;8.80;6.15;;;14.40;99.90;;;;;;5083417;28;37347;-80
2023/09/26 00:49:10;;;;;;;7.13;5.60;;;14.40;99.90;;;;;;5061340;28;38600;-80
2023/09/26 00:51:38;;;;;;;9.18;6.50;;;14.40;99.90;;;;;;5083732;28;38772;-80
2023/09/26 00:54:05;;;;;;;8.95;6.80;;;14.40;99.90;;;;;;5082168;27;39071;-80
2023/09/26 00:56:31;;;;;;;11.13;6.90;;;14.40;99.90;;;;;;5064862;28;37299;-78
2023/09/26 00:59:00;;;;;;;8.27;6.20;;;14.40;99.90;;;;;;5078408;28;39913;-79
2023/09/26 01:01:29;;;;;;;10.07;6.95;;;14.40;99.90;;;;;;5062077;28;38693;-78
2023/09/26 01:03:57;;;;;;;9.55;6.72;;;14.40;99.90;;;;;;5072335;28;37896;-79
2023/09/26 01:06:23;;;;;;;8.88;6.53;;;14.40;99.90;;;;;;5065009;28;35756;-78
2023/09/26 01:08:49;;;;;;;8.70;6.60;;;14.30;99.90;;;;;;5078232;28;39504;-78
2023/09/26 01:11:16;;;;;;;9.50;6.50;;;14.40;99.90;;;;;;5068689;28;38311;-78
2023/09/26 01:13:42;;;;;;;10.05;7.60;;;14.40;99.90;;;;;;5068565;28;37974;-79
2023/09/26 01:16:19;;;;;;;8.40;6.63;;;14.40;99.90;;;;;;5065150;28;37427;-78
2023/09/26 01:18:46;;;;;;;9.20;7.55;;;14.40;99.90;;;;;;5086136;27;38998;-78
2023/09/26 01:21:12;;;;;;;9.05;7.07;;;14.40;99.90;;;;;;5061492;28;37447;-78
2023/09/26 01:23:40;;;;;;;10.35;7.10;;;14.40;99.90;;;;;;5081273;28;38951;-78
2023/09/26 01:26:07;;;;;;;9.70;7.30;;;14.50;99.90;;;;;;5052058;28;35770;-77
2023/09/26 01:28:35;;;;;;;8.90;6.93;;;14.50;99.90;;;;;;5076681;28;39561;-78
2023/09/26 01:31:01;;;;;;;11.98;7.78;;;14.50;99.90;;;;;;5085087;28;38852;-78
2023/09/26 01:33:27;;;;;;;11.52;6.88;;;14.60;99.90;;;;;;5069180;28;37446;-78
2023/09/26 01:35:53;;;;;;;9.52;6.88;;;14.60;99.90;;;;;;5070789;28;36043;-78
2023/09/26 01:38:21;;;;;;;9.50;6.85;;;14.60;99.90;;;;;;5078795;27;39811;-78
2023/09/26 01:40:48;;;;;;;9.93;7.90;;;14.60;99.90;;;;;;5082825;27;39400;-78
2023/09/26 01:43:14;;;;;;;11.30;8.45;;;14.50;99.90;;;;;;5066318;28;37964;-78
2023/09/26 01:45:40;;;;;;;10.98;7.63;;;14.50;99.90;;;;;;5065910;28;35838;-78
2023/09/26 01:48:06;;;;;;;12.40;7.97;;;14.50;99.90;;;;;;5061670;28;37864;-78
2023/09/26 01:50:34;;;;;;;10.38;7.97;;;14.50;99.90;;;;;;5062869;28;37096;-79
2023/09/26 01:53:00;;;;;;;11.02;8.00;;;14.50;99.90;;;;;;5078532;28;38648;-78
2023/09/26 01:55:26;;;;;;;12.50;8.82;;;14.50;99.90;;;;;;5064321;28;35860;-78
2023/09/26 01:57:52;;;;;;;12.30;8.57;;;14.50;99.90;;;;;;5082068;28;38714;-78
2023/09/26 02:00:19;;;;;;;12.10;8.82;;;14.40;99.90;;;;;;5081694;28;38217;-78
2023/09/26 02:02:48;;;;;;;10.77;8.02;;;14.40;99.90;;;;;;5082155;28;47685;-79
2023/09/26 02:05:17;;;;;;;11.18;7.75;;;14.40;99.90;;;;;;5065620;28;36128;-79
2023/09/26 02:07:45;;;;;;;10.55;7.25;;;14.40;99.90;;;;;;5054221;28;37705;-78
2023/09/26 02:10:12;;;;;;;16.70;8.07;;;14.40;99.90;;;;;;5062631;28;38542;-78
2023/09/26 02:12:47;;;;;;;13.55;8.23;;;14.30;99.90;;;;;;5066530;28;37414;-78
2023/09/26 02:15:13;;;;;;;10.52;7.70;;;14.30;99.90;;;;;;5064513;28;36212;-78
2023/09/26 02:17:41;;;;;;;12.85;8.10;;;14.30;99.90;;;;;;5086397;28;40151;-78
2023/09/26 02:20:12;;;;;;;12.02;8.75;;;14.30;99.90;;;;;;5076239;28;38073;-78
2023/09/26 02:22:43;;;;;;;11.95;8.52;;;14.20;99.90;;;;;;5076293;28;37910;-77
2023/09/26 02:25:11;;;;;;;9.80;8.13;;;14.20;99.90;;;;;;5082434;28;37967;-78
2023/09/26 02:27:41;;;;;;;12.13;7.78;;;14.20;99.90;;;;;;5065950;28;41040;-78
2023/09/26 02:30:09;;;;;;;11.63;7.90;;;14.10;99.90;;;;;;5079020;28;38649;-77
2023/09/26 02:32:36;;;;;;;11.73;8.73;;;14.10;99.90;;;;;;5083563;28;37979;-78
2023/09/26 02:35:04;;;;;;;9.23;7.72;;;14.10;99.90;;;;;;5090177;28;37358;-78
2023/09/26 02:37:30;;;;;;;10.48;8.07;;;14.10;99.90;;;;;;5068635;28;48995;-78
2023/09/26 02:39:56;;;;;;;12.18;8.63;;;14.10;99.90;;;;;;5080555;28;38314;-77
2023/09/26 02:42:22;;;;;;;10.20;8.07;;;14.10;99.90;;;;;;5068912;28;37222;-78
2023/09/26 02:44:48;;;;;;;15.13;8.45;;;14.10;99.90;;;;;;5086553;28;37925;-78
2023/09/26 02:47:14;;;;;;;11.90;8.50;;;14.10;99.90;;;;;;5068197;28;37936;-78
2023/09/26 02:49:41;;;;;;;11.45;7.88;;;14.10;99.90;;;;;;5058235;28;38371;-76
2023/09/26 02:52:08;;;;;;;12.30;8.15;;;14.10;99.90;;;;;;5054819;28;37003;-77
2023/09/26 02:54:34;;;;;;;11.32;8.50;;;14.10;99.90;;;;;;5058683;28;36214;-77
2023/09/26 02:57:00;;;;;;;11.70;7.90;;;14.10;99.90;;;;;;5077468;28;39530;-77
2023/09/26 02:59:26;;;;;;;9.13;7.57;;;14.00;99.90;;;;;;5056706;28;38413;-76
2023/09/26 03:01:52;;;;;;;12.70;8.23;;;14.00;99.90;;;;;;5065314;28;37868;-77
2023/09/26 03:04:18;;;;;;;11.07;7.38;;;14.00;99.90;;;;;;5078261;28;36962;-76
2023/09/26 03:06:44;;;;;;;9.05;7.78;;;14.00;99.90;;;;;;5059342;28;37664;-77
2023/09/26 03:09:10;;;;;;;9.93;7.45;;;14.00;99.90;;;;;;5075482;28;38213;-77
2023/09/26 03:11:37;;;;;;;9.70;7.68;;;14.00;99.90;;;;;;5081439;28;37233;-76
2023/09/26 03:14:03;;;;;;;9.70;7.38;;;14.00;99.90;;;;;;5077890;28;35876;-76
2023/09/26 03:16:29;;;;;;;9.50;8.35;;;14.00;99.90;;;;;;5085303;28;39456;-77
2023/09/26 03:18:55;;;;;;;11.52;8.18;;;14.00;99.90;;;;;;5089661;28;39391;-77
2023/09/26 03:21:22;;;;;;;12.63;7.95;;;13.90;99.90;;;;;;5062684;28;36987;-76
2023/09/26 03:23:49;;;;;;;11.32;7.80;;;13.90;99.90;;;;;;5067199;28;36450;-77
2023/09/26 03:26:15;;;;;;;11.70;7.93;;;13.90;99.90;;;;;;5072231;28;37551;-77
2023/09/26 03:28:42;;;;;;;11.82;8.82;;;13.90;99.90;;;;;;5076849;28;38638;-76
2023/09/26 03:31:11;;;;;;;12.02;9.20;;;13.90;99.90;;;;;;5064939;28;37246;-77
2023/09/26 03:33:38;;;;;;;12.80;10.10;;;13.90;99.90;;;;;;5070079;28;36154;-77
2023/09/26 03:36:04;;;;;;;14.48;10.52;;;13.90;99.90;;;;;;5086846;28;38999;-78
2023/09/26 03:38:31;;;;;;;14.77;9.55;;;13.90;99.90;;;;;;5072044;28;37522;-78
2023/09/26 03:41:03;;;;;;;13.45;9.95;;;13.90;99.90;;;;;;5071027;28;36953;-77
2023/09/26 03:43:30;;;;;;;13.48;10.10;;;13.90;99.90;;;;;;5075072;28;48725;-77
2023/09/26 03:46:05;;;;;;;14.20;9.77;;;13.90;99.90;;;;;;5081606;28;40611;-77
2023/09/26 03:48:32;;;;;;;13.70;9.02;;;13.90;99.90;;;;;;5092633;28;48928;-76
2023/09/26 03:51:09;;;;;;;10.93;8.70;;;13.90;99.90;;;;;;5081339;28;38820;-77
2023/09/26 03:53:36;;;;;;;12.93;10.23;;;13.90;99.90;;;;;;5068625;28;48626;-77
2023/09/26 03:56:02;;;;;;;13.98;9.68;;;13.90;99.90;;;;;;5085475;27;38896;-78
2023/09/26 03:58:28;;;;;;;11.60;9.30;;;14.00;99.90;;;;;;5064294;28;37724;-77
2023/09/26 04:00:54;;;;;;;11.88;9.50;;;14.00;99.90;;;;;;5067488;28;38560;-78
2023/09/26 04:03:20;;;;;;;15.40;9.95;;;14.00;99.90;;;;;;5067617;28;36070;-77
2023/09/26 04:05:48;;;;;;;14.95;9.85;;;14.00;99.90;;;;;;5064297;28;38016;-79
2023/09/26 04:08:14;;;;;;;11.60;9.15;;;14.00;99.90;;;;;;5084802;28;38015;-77
2023/09/26 04:10:40;;;;;;;11.43;9.35;;;14.00;99.90;;;;;;5088049;28;38815;-77
2023/09/26 04:13:06;;;;;;;12.65;9.40;;;14.00;99.90;;;;;;5086742;28;38147;-77
2023/09/26 04:15:35;;;;;;;12.52;10.73;;;14.00;99.90;;;;;;5069860;28;37737;-77
2023/09/26 04:18:01;;;;;;;11.55;9.32;;;14.00;99.90;;;;;;5079313;28;38783;-77
2023/09/26 04:20:28;;;;;;;12.48;9.77;;;14.00;99.90;;;;;;5069782;28;38742;-77
2023/09/26 04:22:54;;;;;;;11.52;9.32;;;14.00;99.90;;;;;;5084975;27;37334;-77
2023/09/26 04:25:20;;;;;;;13.00;10.07;;;14.00;99.90;;;;;;5067392;27;37275;-77
2023/09/26 04:27:46;;;;;;;11.68;9.48;;;14.00;99.90;;;;;;5068420;28;37109;-77
2023/09/26 04:30:12;;;;;;;12.55;9.65;;;14.00;99.90;;;;;;5066377;28;37965;-77
2023/09/26 04:32:38;;;;;;;13.32;9.70;;;14.00;99.90;;;;;;5079193;28;36999;-77
2023/09/26 04:35:05;;;;;;;15.57;10.43;;;14.00;99.90;;;;;;5067365;28;39746;-76
2023/09/26 04:37:31;;;;;;;16.40;10.63;;;14.00;99.90;;;;;;5095353;28;48634;-77
2023/09/26 04:39:58;;;;;;;12.07;9.68;;;13.90;99.90;;;;;;5076964;28;39089;-77
2023/09/26 04:42:24;;;;;;;12.93;10.18;;;13.90;99.90;;;;;;5087014;28;37130;-77
2023/09/26 04:44:51;;;;;;;14.52;10.68;;;13.90;99.90;;;;;;5063780;28;37888;-77
2023/09/26 04:47:17;;;;;;;14.48;10.90;;;13.90;99.90;;;;;;5064852;28;37360;-76
2023/09/26 04:49:43;;;;;;;13.38;10.43;;;13.90;99.90;;;;;;5070527;28;38992;-77
2023/09/26 04:52:09;;;;;;;13.52;10.48;;;13.80;99.90;;;;;;5085324;28;38864;-77
2023/09/26 04:54:35;;;;;;;15.25;10.95;;;13.80;99.90;;;;;;5080440;28;39027;-77
2023/09/26 04:57:01;;;;;;;14.70;10.38;;;13.80;99.90;;;;;;5068005;28;37002;-78
2023/09/26 04:59:28;;;;;;;17.30;11.90;;;13.80;99.90;;;;;;5067298;28;47142;-77
2023/09/26 05:01:54;;;;;;;14.82;12.00;;;13.90;99.90;;;;;;5086805;28;38651;-77
2023/09/26 05:04:20;;;;;;;16.65;12.43;;;13.90;99.90;;;;;;5071396;28;38012;-77
2023/09/26 05:06:46;;;;;;;15.27;11.85;;;13.90;99.90;;;;;;5082861;28;38349;-77
2023/09/26 05:09:13;;;;;;;14.38;11.65;;;13.90;99.90;;;;;;5081170;28;36894;-77
2023/09/26 05:11:40;;;;;;;13.90;11.80;;;13.80;99.90;;;;;;5060883;28;20076;-76
2023/09/26 05:14:06;;;;;;;13.85;12.20;;;13.80;99.90;;;;;;5085956;28;38513;-76
2023/09/26 05:16:32;;;;;;;15.25;13.05;;;13.80;99.90;;;;;;5066589;28;37409;-77
2023/09/26 05:18:58;;;;;;;19.00;15.10;;;13.80;99.90;;;;;;5093456;28;37776;-74
2023/09/26 05:21:24;;;;;;;16.23;13.15;;;13.70;99.90;;;;;;5081749;28;38727;-76
2023/09/26 05:23:50;;;;;;;17.77;13.93;;;13.70;99.90;;;;;;5086161;28;38595;-76
2023/09/26 05:26:16;;;;;;;17.55;13.88;;;13.70;99.90;;;;;;5073915;28;39043;-75
2023/09/26 05:28:44;;;;;;;16.70;14.00;;;13.70;99.90;;;;;;5066280;28;36896;-76
2023/09/26 05:31:10;;;;;;;19.77;15.45;;;13.70;99.90;;;;;;5064381;28;38118;-77
2023/09/26 05:33:36;;;;;;;18.40;15.45;;;13.70;99.90;;;;;;5096919;28;40102;-76
2023/09/26 05:36:04;;;;;;;20.25;15.40;;;13.70;99.90;;;;;;5069069;28;37652;-75
2023/09/26 05:38:30;;;;;;;18.75;15.73;;;13.70;99.90;;;;;;5083550;28;37463;-75
2023/09/26 05:40:56;;;;;;;22.17;17.25;;;13.70;99.90;;;;;;5066586;28;36313;-77
2023/09/26 05:43:22;;;;;;;22.48;17.50;;;13.70;99.90;;;;;;5061459;28;38682;-76
2023/09/26 05:45:49;;;;;;;20.95;15.43;;;13.70;99.90;;;;;;5068272;28;38162;-76
2023/09/26 05:48:15;;;;;;;23.13;17.60;;;13.70;99.90;;;;;;5051106;28;36799;-75
2023/09/26 05:50:42;;;;;;;23.92;18.25;;;13.70;99.90;;;;;;5059675;28;36801;-75
2023/09/26 05:53:08;;;;;;;22.95;17.85;;;13.70;99.90;;;;;;5054253;28;37814;-75
2023/09/26 05:55:34;;;;;;;20.20;17.10;;;13.70;99.90;;;;;;5058593;28;37533;-75
2023/09/26 05:58:00;;;;;;;19.80;16.98;;;13.70;99.90;;;;;;5077440;28;37002;-75
2023/09/26 06:00:27;;;;;;;22.05;18.13;;;13.70;99.90;;;;;;5082122;28;38322;-75
2023/09/26 06:02:54;;;;;;;23.52;18.20;;;13.70;99.90;;;;;;5073411;28;38836;-75
2023/09/26 06:05:20;;;;;;;21.27;17.02;;;13.80;99.90;;;;;;5073622;28;38433;-77
2023/09/26 06:07:46;;;;;;;20.70;16.48;;;13.80;99.90;;;;;;5076435;28;38787;-77
2023/09/26 06:10:12;;;;;;;20.05;16.58;;;13.80;99.90;;;;;;5060315;28;36512;-77
2023/09/26 06:12:39;;;;;;;19.20;16.02;;;13.80;99.90;;;;;;5058922;28;37660;-75
2023/09/26 06:15:06;;;;;;;19.40;16.48;;;13.80;99.90;;;;;;5074896;27;37313;-77
2023/09/26 06:17:33;;;;;;;20.27;16.63;;;13.80;99.90;;;;;;5070047;28;38340;-77
2023/09/26 06:19:59;;;;;;;20.23;17.80;;;13.80;99.90;;;;;;5077445;28;36930;-77
2023/09/26 06:22:25;;;;;;;20.42;16.52;;;13.80;99.90;;;;;;5052288;28;38572;-78
2023/09/26 06:24:51;;;;;;;23.35;17.13;;;13.90;99.90;;;;;;5076268;28;38327;-77
2023/09/26 06:27:18;;;;;;;19.70;16.98;;;13.90;99.90;;;;;;5050360;28;38604;-78
2023/09/26 06:29:44;;;;;;;19.90;16.48;;;13.90;99.90;;;;;;5062182;28;39021;-77
2023/09/26 06:32:10;;;;;;;19.40;16.60;;;13.90;99.90;;;;;;5050855;28;37594;-75
2023/09/26 06:34:39;;;;;;;20.38;17.10;;;14.00;99.90;;;;;;5065950;28;37215;-76
2023/09/26 06:37:05;;;;;;;19.55;16.90;;;14.00;99.90;;;;;;5054733;28;38678;-75
2023/09/26 06:39:31;;;;;;;25.23;19.85;;;14.10;99.90;;;;;;5080871;28;37273;-75
2023/09/26 06:41:57;;;;;;;23.50;20.40;;;14.20;99.90;;;;;;5056525;28;39154;-75
2023/09/26 06:44:23;;;;;;;22.02;18.52;;;14.20;99.90;;;;;;5058430;28;37232;-77
2023/09/26 06:46:51;;;;;;;25.60;20.60;;;14.20;99.90;;;;;;5071793;28;38843;-76
2023/09/26 06:49:17;;;;;;;22.38;18.48;;;14.30;99.90;;;;;;5060919;28;37723;-77
2023/09/26 06:51:43;;;;;;;21.80;19.02;;;14.30;99.90;;;;;;5055730;28;39060;-77
2023/09/26 06:54:09;;;;;;;27.92;24.70;;;14.40;99.90;;;;;;5077352;28;36005;-76
2023/09/26 06:56:36;;;;;;;36.95;26.42;;;14.50;99.90;;;;;;5079652;28;37736;-76
2023/09/26 06:59:02;;;;;;;30.52;21.75;;;14.60;99.90;;;;;;5075753;28;37930;-76
2023/09/26 07:01:29;;;;;;;26.75;22.77;;;14.60;99.90;;;;;;5072690;28;38989;-77
2023/09/26 07:03:55;;;;;;;26.88;22.08;;;14.70;99.90;;;;;;5081148;28;39348;-78
2023/09/26 07:06:21;;;;;;;26.00;22.00;;;14.80;99.90;;;;;;5078433;28;38012;-79
2023/09/26 07:08:47;;;;;;;29.77;21.77;;;14.90;99.90;;;;;;5056255;28;36325;-77
2023/09/26 07:11:13;;;;;;;24.27;21.23;;;14.90;99.90;;;;;;5072551;28;38323;-78
2023/09/26 07:13:39;;;;;;;22.00;19.67;;;15.00;99.90;;;;;;5067407;28;38457;-76
2023/09/26 07:16:07;;;;;;;21.20;19.00;;;15.10;99.90;;;;;;5072603;28;38097;-77
2023/09/26 07:18:34;;;;;;;22.85;19.77;;;15.20;99.90;;;;;;5058462;28;36592;-76
2023/09/26 07:21:04;;;;;;;24.08;21.38;;;15.30;99.90;;;;;;5058037;28;37789;-76
2023/09/26 07:23:32;;;;;;;21.45;19.10;;;15.30;99.90;;;;;;5059464;28;47580;-78
2023/09/26 07:26:20;;;;;;;22.45;19.70;;;15.40;99.90;;;;;;5055011;28;37564;-78
2023/09/26 07:28:47;;;;;;;22.02;18.63;;;15.50;99.90;;;;;;5073476;28;48436;-78
2023/09/26 07:31:15;;;;;;;23.13;19.92;;;15.50;99.90;;;;;;5064782;28;37854;-77
2023/09/26 07:33:42;;;;;;;22.35;19.40;;;15.60;99.90;;;;;;5058706;28;37079;-78
2023/09/26 07:36:09;;;;;;;23.65;20.67;;;15.70;99.90;;;;;;5061267;28;37038;-77
2023/09/26 07:38:35;;;;;;;20.23;16.75;;;15.80;99.90;;;;;;5056674;28;36871;-77
2023/09/26 07:41:03;;;;;;;20.33;17.05;;;15.90;99.90;;;;;;5077938;28;39572;-77
2023/09/26 07:43:29;;;;;;;22.00;16.98;;;16.00;99.90;;;;;;5075183;28;48752;-77
2023/09/26 07:45:57;;;;;;;21.83;17.10;;;16.10;99.90;;;;;;5074261;28;38369;-77
2023/09/26 07:48:24;;;;;;;20.70;15.18;;;16.20;99.90;;;;;;5059955;28;36261;-77
2023/09/26 07:50:50;;;;;;;20.30;17.38;;;16.30;99.90;;;;;;5083646;28;39418;-76
2023/09/26 07:53:16;;;;;;;18.58;15.60;;;16.40;99.90;;;;;;5075799;28;39058;-77
2023/09/26 07:55:42;;;;;;;17.25;15.48;;;16.40;99.90;;;;;;5080763;28;36713;-77
2023/09/26 07:58:08;;;;;;;17.95;14.98;;;16.40;99.90;;;;;;5074426;28;38151;-77
2023/09/26 08:00:34;;;;;;;18.58;16.58;;;16.40;99.90;;;;;;5062285;28;38177;-76
2023/09/26 08:03:01;;;;;;;21.98;15.80;;;16.40;99.90;;;;;;5076235;28;36744;-77
2023/09/26 08:05:27;;;;;;;17.55;14.25;;;16.50;99.90;;;;;;5068312;28;47360;-77
2023/09/26 08:07:53;;;;;;;20.90;14.88;;;16.60;99.90;;;;;;5055382;28;36459;-77
2023/09/26 08:10:19;;;;;;;18.67;14.23;;;16.50;99.90;;;;;;5076303;28;38208;-76
2023/09/26 08:12:45;;;;;;;17.33;14.25;;;16.50;99.90;;;;;;5063474;28;38259;-76
2023/09/26 08:15:11;;;;;;;15.93;14.32;;;16.50;99.90;;;;;;5072196;28;39097;-77
2023/09/26 08:17:38;;;;;;;17.33;15.13;;;16.60;99.90;;;;;;5055908;28;36232;-77
2023/09/26 08:20:04;;;;;;;19.55;14.60;;;16.70;99.90;;;;;;5059853;28;38244;-77
2023/09/26 08:22:30;;;;;;;18.67;13.13;;;16.80;99.90;;;;;;5056096;28;37287;-77
2023/09/26 08:24:56;;;;;;;19.45;13.43;;;16.80;99.90;;;;;;5081065;28;37822;-78
2023/09/26 08:27:24;;;;;;;19.85;15.35;;;16.80;99.90;;;;;;5077135;28;37446;-78
2023/09/26 08:29:50;;;;;;;16.83;14.02;;;16.90;99.90;;;;;;5080831;28;38666;-78
2023/09/26 08:32:16;;;;;;;16.38;13.32;;;17.00;99.90;;;;;;5057673;28;37223;-78
2023/09/26 08:34:42;;;;;;;14.75;12.38;;;17.10;99.90;;;;;;5063568;28;36648;-77
2023/09/26 08:37:10;;;;;;;16.08;12.75;;;17.10;99.90;;;;;;5077626;28;37388;-77
2023/09/26 08:39:36;;;;;;;16.70;12.63;;;17.30;99.90;;;;;;5059511;28;37820;-77
2023/09/26 08:42:03;;;;;;;15.63;11.98;;;17.50;99.90;;;;;;5063763;27;39655;-78
2023/09/26 08:44:29;;;;;;;19.65;11.40;;;17.70;99.90;;;;;;5081941;28;40237;-80
2023/09/26 08:46:56;;;;;;;13.63;11.00;;;17.70;99.90;;;;;;5061465;28;36501;-78
2023/09/26 08:49:22;;;;;;;20.92;12.32;;;17.70;99.90;;;;;;5060845;28;38073;-77
2023/09/26 08:51:48;;;;;;;13.75;11.13;;;17.70;99.90;;;;;;5059690;28;39292;-78
2023/09/26 08:54:14;;;;;;;17.75;11.30;;;17.70;99.90;;;;;;5075764;28;38488;-78
2023/09/26 08:56:41;;;;;;;14.73;10.70;;;17.70;99.90;;;;;;5083888;28;38195;-78
2023/09/26 08:59:07;;;;;;;15.95;10.70;;;17.60;99.90;;;;;;5060782;28;39793;-78
2023/09/26 09:01:34;;;;;;;12.90;10.35;;;17.60;99.90;;;;;;5078468;28;38667;-78
2023/09/26 09:04:00;;;;;;;16.15;10.38;;;17.50;99.90;;;;;;5064097;28;36993;-77
2023/09/26 09:06:26;;;;;;;14.63;11.27;;;17.60;99.90;;;;;;5061248;28;36127;-78
2023/09/26 09:09:16;;;;;;;14.57;10.80;;;17.70;99.90;;;;;;5063006;28;39451;-77
2023/09/26 09:11:42;;;;;;;15.25;11.48;;;17.70;99.90;;;;;;5078115;28;48185;-78
2023/09/26 09:14:08;;;;;;;17.58;10.73;;;17.70;99.90;;;;;;5075620;28;38961;-77
2023/09/26 09:16:35;;;;;;;19.02;10.35;;;17.70;99.90;;;;;;5065147;28;36575;-76
2023/09/26 09:19:01;;;;;;;13.50;10.75;;;17.80;99.90;;;;;;5057901;28;38510;-78
2023/09/26 09:21:32;;;;;;;16.25;10.50;;;17.90;99.90;;;;;;5073028;28;46725;-78
2023/09/26 09:24:00;;;;;;;16.13;11.27;;;17.90;99.90;;;;;;5064792;28;36238;-78
2023/09/26 09:26:30;;;;;;;13.18;11.00;;;17.90;99.90;;;;;;5061725;28;36455;-78
2023/09/26 09:28:59;;;;;;;13.70;10.30;;;18.00;99.90;;;;;;5057657;28;39135;-78
2023/09/26 09:31:27;;;;;;;17.77;10.95;;;18.00;99.90;;;;;;5063955;28;38566;-77
2023/09/26 09:33:55;;;;;;;11.25;9.18;;;18.10;99.90;;;;;;5075284;28;38263;-76
2023/09/26 09:36:22;;;;;;;19.58;11.38;;;18.30;99.90;;;;;;5079501;28;36805;-76
2023/09/26 09:38:48;;;;;;;17.00;9.98;;;18.40;99.90;;;;;;5061707;28;37880;-77
2023/09/26 09:41:14;;;;;;;11.93;10.05;;;18.60;99.90;;;;;;5078578;28;36375;-76
2023/09/26 09:43:40;;;;;;;13.82;10.02;;;18.60;99.90;;;;;;5080693;28;38625;-77
2023/09/26 09:46:09;;;;;;;13.13;8.93;;;18.70;99.90;;;;;;5075690;27;37657;-77
2023/09/26 09:48:44;;;;;;;12.00;9.68;;;19.00;99.90;;;;;;5065901;28;38728;-77
2023/09/26 09:51:13;;;;;;;10.65;7.97;;;19.20;99.90;;;;;;5069757;28;37860;-76
2023/09/26 09:53:48;;;;;;;12.93;7.47;;;19.30;99.90;;;;;;5070054;28;37015;-75
2023/09/26 09:56:19;;;;;;;9.75;7.60;;;19.30;99.90;;;;;;5084016;27;37247;-77
2023/09/26 09:58:50;;;;;;;10.98;7.20;;;19.30;99.90;;;;;;5086076;28;38332;-77
2023/09/26 10:01:22;;;;;;;10.93;7.25;;;19.20;99.90;;;;;;5064220;28;37687;-76
2023/09/26 10:03:50;;;;;;;14.45;6.68;;;19.20;99.90;;;;;;5058746;28;36866;-78
2023/09/26 10:06:18;;;;;;;12.13;7.25;;;19.50;99.90;;;;;;5064532;28;36983;-77
2023/09/26 10:08:47;;;;;;;12.52;6.35;;;19.80;99.90;;;;;;5067729;28;37879;-77
2023/09/26 10:11:14;;;;;;;12.13;7.32;;;19.90;99.90;;;;;;5073955;28;37573;-76
2023/09/26 10:13:41;;;;;;;10.02;6.55;;;19.90;99.90;;;;;;5079295;28;37986;-77
2023/09/26 10:16:16;;;;;;;9.55;6.22;;;20.10;99.90;;;;;;5059586;28;36278;-75
2023/09/26 10:18:44;;;;;;;8.57;6.28;;;20.40;99.90;;;;;;5092145;28;38222;-75
2023/09/26 10:21:19;;;;;;;7.88;5.07;;;20.50;99.90;;;;;;5071694;28;37424;-75
2023/09/26 10:24:10;;;;;;;7.65;5.70;;;20.60;99.90;;;;;;5084185;27;38979;-75
2023/09/26 10:26:44;;;;;;;7.88;5.93;;;20.70;99.90;;;;;;5080014;27;48699;-75
2023/09/26 10:29:25;;;;;;;10.35;6.05;;;20.70;94.00;;;;;;5079247;28;39836;-75
2023/09/26 10:32:05;;;;;;;11.55;6.28;;;20.70;99.90;;;;;;5072139;28;37647;-75
2023/09/26 10:34:37;;;;;;;10.45;6.38;;;20.80;98.30;;;;;;5077366;28;47726;-75
2023/09/26 10:37:07;;;;;;;8.03;5.43;;;20.70;99.90;;;;;;5071740;28;37813;-76
2023/09/26 10:39:38;;;;;;;9.57;5.80;;;20.80;99.90;;;;;;5085860;28;39582;-76
2023/09/26 10:42:16;;;;;;;10.57;5.97;;;21.10;99.90;;;;;;5086742;28;38287;-76
2023/09/26 10:44:44;;;;;;;10.35;6.25;;;21.00;94.00;;;;;;5062240;28;36918;-76
2023/09/26 10:47:13;;;;;;;7.57;5.45;;;20.60;99.90;;;;;;5071026;27;36405;-76
2023/09/26 10:49:39;;;;;;;6.80;5.15;;;20.50;99.90;;;;;;5092248;28;38937;-76
2023/09/26 10:52:09;;;;;;;8.45;5.97;;;20.50;99.90;;;;;;5085114;28;38423;-77
2023/09/26 10:54:37;;;;;;;9.05;5.13;;;20.60;98.90;;;;;;5085884;28;38365;-77
2023/09/26 10:57:04;;;;;;;10.73;5.00;;;20.80;98.80;;;;;;5073901;27;36267;-77
2023/09/26 10:59:31;;;;;;;8.73;4.78;;;21.10;99.90;;;;;;5094758;28;38663;-77
2023/09/26 11:01:59;;;;;;;11.43;4.32;;;21.40;81.40;;;;;;5085003;28;38449;-76
2023/09/26 11:04:28;;;;;;;10.52;4.78;;;21.50;99.70;;;;;;5080954;28;38145;-76
2023/09/26 11:07:05;;;;;;;7.35;4.10;;;21.60;91.40;;;;;;5081442;28;37087;-76
2023/09/26 11:09:37;;;;;;;8.23;4.40;;;21.50;70.40;;;;;;5068373;28;47245;-75
2023/09/26 11:12:04;;;;;;;8.40;4.22;;;21.40;66.70;;;;;;5078579;28;37105;-76
2023/09/26 11:14:32;;;;;;;5.78;3.70;;;21.40;56.60;;;;;;5083091;28;37251;-75
2023/09/26 11:16:58;;;;;;;5.22;3.60;;;21.30;52.50;;;;;;5082962;28;37490;-75
2023/09/26 11:19:28;;;;;;;7.10;4.10;;;21.50;63.10;;;;;;5075837;28;38420;-74
2023/09/26 11:21:55;;;;;;;5.90;3.72;;;21.70;70.10;;;;;;5041262;28;37689;-81
2023/09/26 11:24:32;;;;;;;9.77;3.88;;;21.80;33.30;;;;;;5081199;28;38367;-80
2023/09/26 11:27:01;;;;;;;6.50;3.60;;;21.60;35.70;;;;;;5085618;28;37113;-80
2023/09/26 11:29:28;;;;;;;6.43;2.72;;;21.50;44.20;;;;;;5087008;28;48660;-80
2023/09/26 11:31:55;;;;;;;8.13;3.17;;;21.40;20.90;;;;;;5067024;28;37172;-80
2023/09/26 11:34:23;;;;;;;3.72;2.92;;;21.30;39.50;;;;;;5079532;28;38120;-79
2023/09/26 11:36:49;;;;;;;3.95;2.80;;;21.20;36.20;;;;;;5069545;28;36480;-80
2023/09/26 11:39:23;;;;;;;5.30;2.60;;;21.30;47.30;;;;;;5070177;28;37622;-80
2023/09/26 11:42:10;;;;;;;4.00;2.45;;;21.40;51.50;;;;;;5072872;28;38815;-80
2023/09/26 11:44:36;;;;;;;6.88;2.92;;;21.40;30.60;;;;;;5069615;28;45220;-79
2023/09/26 11:47:04;;;;;;;6.05;3.03;;;21.40;29.50;;;;;;5081793;28;35731;-79
2023/09/26 11:49:31;;;;;;;4.68;3.03;;;21.50;33.40;;;;;;5084279;28;40292;-79
2023/09/26 11:51:57;;;;;;;8.05;2.85;;;21.50;27.90;;;;;;5068102;28;37952;-79
2023/09/26 11:54:23;;;;;;;4.25;2.78;;;21.30;26.90;;;;;;5069761;28;36886;-79
2023/09/26 11:56:52;;;;;;;3.88;2.60;;;21.40;30.80;;;;;;5078279;28;36117;-79
2023/09/26 11:59:18;;;;;;;3.83;2.85;;;21.40;35.90;;;;;;5065136;28;38968;-80
2023/09/26 12:01:44;;;;;;;4.95;2.55;;;21.50;51.40;;;;;;5062366;28;37224;-78
2023/09/26 12:04:12;;;;;;;5.60;2.90;;;21.60;46.30;;;;;;5056875;28;36909;-78
2023/09/26 12:06:41;;;;;;;7.80;3.00;;;21.60;32.00;;;;;;5077229;28;37948;-79
2023/09/26 12:09:18;;;;;;;4.25;2.58;;;21.70;29.00;;;;;;5076241;28;37937;-79
2023/09/26 12:11:44;;;;;;;5.20;2.83;;;21.90;39.50;;;;;;5091307;28;38462;-78
2023/09/26 12:14:10;;;;;;;7.88;3.10;;;22.10;31.70;;;;;;5083958;28;39578;-80
2023/09/26 12:16:36;;;;;;;8.93;3.88;;;22.30;32.20;;;;;;5065131;28;35819;-80
2023/09/26 12:19:02;;;;;;;5.45;3.03;;;22.20;19.60;;;;;;5065939;28;39013;-79
2023/09/26 12:21:29;;;;;;;8.13;3.38;;;22.20;29.20;;;;;;5078835;28;37114;-80
2023/09/26 12:23:56;;;;;;;6.72;3.30;;;22.30;21.50;;;;;;5088830;28;38251;-79
2023/09/26 12:26:22;;;;;;;6.10;2.90;;;22.30;18.00;;;;;;5066699;28;37754;-80
2023/09/26 12:28:48;;;;;;;4.03;3.13;;;22.40;9.60;;;;;;5072427;28;38084;-79
2023/09/26 12:31:14;;;;;;;7.85;4.03;;;22.50;3.80;;;;;;5082317;28;38674;-80
2023/09/26 12:33:40;;;;;;;5.65;3.55;;;22.40;23.60;;;;;;5089704;28;37623;-80
2023/09/26 12:36:06;;;;;;;6.38;3.85;;;22.40;28.60;;;;;;5076332;28;35707;-79